createdAt,value
2023-03-05T00:00:12.552Z,70.96
2023-03-05T00:03:14.142Z,72.61
2023-03-05T00:06:16.646Z,73.05
2023-03-05T00:09:19.012Z,72.31
2023-03-05T00:12:20.617Z,73.76
2023-03-05T00:15:22.218Z,73.18
2023-03-05T00:18:24.000Z,73.39
2023-03-05T00:21:28.038Z,72.68
2023-03-05T00:24:30.200Z,72.23
2023-03-05T00:27:31.667Z,73.71
2023-03-05T00:30:33.484Z,73.82
2023-03-05T00:33:35.228Z,73.92
2023-03-05T00:36:40.227Z,72.46
2023-03-05T00:39:42.416Z,72.23
2023-03-05T00:42:43.959Z,72.53
2023-03-05T00:45:45.276Z,72.85
2023-03-05T00:48:46.752Z,71.19
2023-03-05T00:51:48.080Z,70.84
2023-03-05T00:54:50.295Z,69.96
2023-03-05T00:57:51.768Z,68.66
2023-03-05T01:00:56.580Z,68.78
2023-03-05T01:03:59.314Z,67.99
2023-03-05T01:07:00.745Z,67.99
2023-03-05T01:10:07.066Z,66.57
2023-03-05T01:13:08.585Z,66.17
2023-03-05T01:16:11.922Z,64.36
2023-03-05T01:19:14.359Z,64.93
2023-03-05T01:22:15.715Z,64.13
2023-03-05T01:25:18.346Z,64.98
2023-03-05T01:28:19.848Z,62.83
2023-03-05T01:31:21.252Z,62.56
2023-03-05T01:34:22.853Z,61.97
2023-03-05T01:37:24.162Z,60.16
2023-03-05T01:40:29.505Z,60.40
2023-03-05T01:43:30.956Z,60.64
2023-03-05T01:46:34.548Z,59.63
2023-03-05T01:49:38.270Z,60.31
2023-03-05T01:52:43.526Z,59.66
2023-03-05T01:55:45.968Z,59.98
2023-03-05T01:58:47.454Z,60.36
2023-03-05T02:01:52.839Z,58.91
2023-03-05T02:04:57.322Z,59.19
2023-03-05T02:08:00.534Z,58.98
2023-03-05T02:11:03.413Z,58.79
2023-03-05T02:14:08.444Z,58.87
2023-03-05T02:17:11.804Z,58.35
2023-03-05T02:20:18.051Z,58.32
2023-03-05T02:23:21.763Z,58.30
2023-03-05T02:26:23.056Z,58.34
2023-03-05T02:29:24.355Z,58.28
2023-03-05T02:32:25.834Z,58.24
2023-03-05T02:35:27.333Z,58.26
2023-03-05T02:38:29.479Z,58.67
2023-03-05T02:41:30.909Z,58.41
2023-03-05T02:44:32.441Z,58.75
2023-03-05T02:47:33.884Z,58.79
2023-03-05T02:50:36.146Z,58.94
2023-03-05T02:53:38.242Z,59.06
2023-03-05T02:56:39.696Z,59.33
2023-03-05T02:59:41.038Z,58.87
2023-03-05T03:02:42.660Z,59.03
2023-03-05T03:05:44.034Z,59.82
2023-03-05T03:08:50.003Z,59.28
2023-03-05T03:11:51.444Z,59.10
2023-03-05T03:14:52.777Z,58.59
2023-03-05T03:17:54.671Z,59.55
2023-03-05T03:20:55.987Z,59.04
2023-03-05T03:23:58.490Z,58.35
2023-03-05T03:27:00.129Z,59.66
2023-03-05T03:30:04.010Z,58.89
2023-03-05T03:33:05.496Z,59.72
2023-03-05T03:36:07.636Z,58.81
2023-03-05T03:39:09.962Z,60.09
2023-03-05T03:42:11.527Z,60.49
2023-03-05T03:45:13.278Z,60.62
2023-03-05T03:48:14.734Z,61.21
2023-03-05T03:51:16.048Z,61.22
2023-03-05T03:54:19.393Z,61.13
2023-03-05T03:57:20.978Z,61.36
2023-03-05T04:00:22.449Z,61.39
2023-03-05T04:03:23.947Z,61.97
2023-03-05T04:06:25.375Z,61.13
2023-03-05T04:09:27.513Z,62.25
2023-03-05T04:12:28.778Z,62.90
2023-03-05T04:15:30.188Z,63.27
2023-03-05T04:18:32.578Z,63.52
2023-03-05T04:21:34.043Z,64.01
2023-03-05T04:24:36.137Z,64.21
2023-03-05T04:27:39.348Z,64.20
2023-03-05T04:30:40.868Z,64.44
2023-03-05T04:33:42.412Z,64.16
2023-03-05T04:36:43.802Z,64.96
2023-03-05T04:39:45.859Z,64.57
2023-03-05T04:42:47.405Z,64.99
2023-03-05T04:45:48.935Z,65.52
2023-03-05T04:48:50.392Z,66.02
2023-03-05T04:51:51.662Z,65.40
2023-03-05T04:54:53.892Z,65.63
2023-03-05T04:57:55.161Z,65.45
2023-03-05T05:01:01.425Z,66.31
2023-03-05T05:04:02.846Z,66.31
2023-03-05T05:07:04.446Z,66.18
2023-03-05T05:10:07.889Z,66.48
2023-03-05T05:13:09.215Z,66.99
2023-03-05T05:16:10.843Z,66.58
2023-03-05T05:19:12.342Z,66.15
2023-03-05T05:22:13.616Z,67.30
2023-03-05T05:25:15.655Z,67.16
2023-03-05T05:28:16.921Z,68.15
2023-03-05T05:31:19.077Z,67.82
2023-03-05T05:34:20.482Z,67.92
2023-03-05T05:37:21.908Z,68.39
2023-03-05T05:40:23.888Z,67.85
2023-03-05T05:43:25.220Z,67.94
2023-03-05T05:46:28.222Z,67.83
2023-03-05T05:49:29.556Z,67.60
2023-03-05T05:52:31.159Z,68.06
2023-03-05T05:55:33.182Z,68.25
2023-03-05T05:58:34.789Z,68.23
2023-03-05T06:01:36.365Z,67.89
2023-03-05T06:04:39.228Z,68.50
2023-03-05T06:07:40.560Z,67.98
2023-03-05T06:10:42.600Z,68.32
2023-03-05T06:13:44.054Z,68.00
2023-03-05T06:16:45.373Z,67.66
2023-03-05T06:19:46.735Z,67.82
2023-03-05T06:22:48.055Z,68.19
2023-03-05T06:25:50.288Z,67.83
2023-03-05T06:28:52.317Z,67.75
2023-03-05T06:31:53.752Z,67.18
2023-03-05T06:34:55.230Z,67.00
2023-03-05T06:37:56.669Z,66.52
2023-03-05T06:41:01.460Z,65.96
2023-03-05T06:44:03.347Z,64.98
2023-03-05T06:47:04.903Z,66.32
2023-03-05T06:50:06.767Z,66.43
2023-03-05T06:53:08.125Z,65.61
2023-03-05T06:56:10.560Z,66.04
2023-03-05T06:59:14.286Z,64.41
2023-03-05T07:02:16.063Z,64.05
2023-03-05T07:05:17.512Z,63.57
2023-03-05T07:08:19.036Z,63.60
2023-03-05T07:11:22.023Z,64.15
2023-03-05T07:14:23.393Z,63.67
2023-03-05T07:17:24.953Z,63.44
2023-03-05T07:20:26.271Z,63.88
2023-03-05T07:23:27.969Z,63.44
2023-03-05T07:26:32.552Z,63.21
2023-03-05T07:29:34.080Z,62.38
2023-03-05T07:32:35.815Z,63.76
2023-03-05T07:35:40.233Z,62.71
2023-03-05T07:38:41.627Z,63.73
2023-03-05T07:41:43.548Z,63.10
2023-03-05T07:44:45.227Z,62.47
2023-03-05T07:47:46.721Z,62.65
2023-03-05T07:50:48.571Z,61.07
2023-03-05T07:53:52.164Z,60.12
2023-03-05T07:56:54.773Z,61.02
2023-03-05T07:59:56.344Z,60.63
2023-03-05T08:02:57.651Z,60.81
2023-03-05T08:05:58.950Z,61.09
2023-03-05T08:09:00.630Z,60.20
2023-03-05T08:12:02.707Z,59.80
2023-03-05T08:15:04.736Z,59.12
2023-03-05T08:18:06.232Z,58.67
2023-03-05T08:21:15.581Z,57.56
2023-03-05T08:24:17.054Z,56.78
2023-03-05T08:27:18.987Z,55.16
2023-03-05T08:30:21.941Z,54.78
2023-03-05T08:33:23.219Z,54.28
2023-03-05T08:36:24.871Z,54.14
2023-03-05T08:39:26.350Z,54.63
2023-03-05T08:42:28.291Z,53.87
2023-03-05T08:45:29.676Z,53.86
2023-03-05T08:48:31.525Z,52.76
2023-03-05T08:51:34.029Z,51.62
2023-03-05T08:54:36.727Z,51.93
2023-03-05T08:57:38.661Z,52.10
2023-03-05T09:00:40.458Z,51.49
2023-03-05T09:03:42.114Z,50.33
2023-03-05T09:06:43.400Z,49.85
2023-03-05T09:09:44.866Z,50.34
2023-03-05T09:12:48.431Z,50.93
2023-03-05T09:15:54.431Z,50.67
2023-03-05T09:18:55.906Z,50.61
2023-03-05T09:21:57.286Z,51.93
2023-03-05T09:24:58.708Z,51.47
2023-03-05T09:28:00.646Z,51.13
2023-03-05T09:31:03.526Z,51.94
2023-03-05T09:34:06.542Z,51.88
2023-03-05T09:37:08.434Z,50.81
2023-03-05T09:40:15.446Z,50.61
2023-03-05T09:43:30.152Z,50.23
2023-03-05T09:46:44.141Z,49.58
2023-03-05T09:49:53.631Z,49.51
2023-03-05T09:52:59.151Z,49.32
2023-03-05T09:56:04.800Z,49.20
2023-03-05T09:59:19.888Z,49.88
2023-03-05T10:02:25.803Z,50.10
2023-03-05T10:05:37.151Z,49.33
2023-03-05T10:08:48.583Z,49.44
2023-03-05T10:11:54.654Z,49.54
2023-03-05T10:15:00.057Z,49.33
2023-03-05T10:18:18.321Z,49.38
2023-03-05T10:21:29.845Z,49.44
2023-03-05T10:24:45.393Z,51.10
2023-03-05T10:27:49.250Z,53.22
2023-03-05T10:31:02.868Z,55.07
2023-03-05T10:34:30.041Z,56.38
2023-03-05T10:37:49.674Z,57.01
2023-03-05T10:40:54.086Z,56.25
2023-03-05T10:44:03.780Z,56.24
2023-03-05T10:47:15.705Z,54.83
2023-03-05T10:50:20.028Z,54.73
2023-03-05T10:53:27.509Z,54.08
2023-03-05T10:56:31.052Z,53.77
2023-03-05T10:59:32.385Z,54.00
2023-03-05T11:02:53.379Z,53.82
2023-03-05T11:06:01.063Z,54.65
2023-03-05T11:09:20.941Z,54.89
2023-03-05T11:12:26.996Z,54.12
2023-03-05T11:15:30.030Z,54.34
2023-03-05T11:18:34.152Z,52.79
2023-03-05T11:21:35.441Z,52.54
2023-03-05T11:24:37.142Z,51.85
2023-03-05T11:27:43.886Z,50.85
2023-03-05T11:30:55.589Z,51.60
2023-03-05T11:34:00.963Z,51.60
2023-03-05T11:37:05.472Z,50.11
2023-03-05T11:40:22.895Z,50.56
2023-03-05T11:43:25.820Z,50.87
2023-03-05T11:46:28.471Z,50.61
2023-03-05T11:49:33.461Z,50.44
2023-03-05T11:52:45.469Z,51.06
2023-03-05T11:55:50.240Z,50.85
2023-03-05T11:58:56.914Z,48.86
2023-03-05T12:01:58.536Z,49.09
2023-03-05T12:05:02.526Z,48.59
2023-03-05T12:08:05.225Z,47.45
2023-03-05T12:11:14.609Z,48.35
2023-03-05T12:14:23.623Z,47.41
2023-03-05T12:17:32.308Z,46.66
2023-03-05T12:20:42.603Z,46.15
2023-03-05T12:23:46.591Z,45.96
2023-03-05T12:26:56.336Z,44.67
2023-03-05T12:30:00.767Z,44.51
2023-03-05T12:33:03.296Z,45.78
2023-03-05T12:36:36.114Z,45.44
2023-03-05T12:39:57.028Z,44.38
2023-03-05T12:43:00.428Z,44.71
2023-03-05T12:46:24.992Z,43.49
2023-03-05T12:49:35.086Z,43.47
2023-03-05T12:52:39.908Z,43.74
2023-03-05T12:55:55.015Z,43.82
2023-03-05T12:58:59.882Z,44.64
2023-03-05T13:02:10.700Z,44.04
2023-03-05T13:05:20.897Z,44.98
2023-03-05T13:08:25.216Z,47.09
2023-03-05T13:11:28.652Z,47.59
2023-03-05T13:14:34.317Z,48.26
2023-03-05T13:17:38.380Z,48.87
2023-03-05T13:20:42.023Z,49.14
2023-03-05T13:23:47.510Z,47.06
2023-03-05T13:26:49.015Z,47.06
2023-03-05T13:29:52.043Z,48.43
2023-03-05T13:33:02.111Z,48.01
2023-03-05T13:36:04.963Z,47.56
2023-03-05T13:39:07.137Z,45.75
2023-03-05T13:42:16.778Z,45.21
2023-03-05T13:45:26.643Z,46.08
2023-03-05T13:48:28.168Z,46.29
2023-03-05T13:51:43.577Z,45.05
2023-03-05T13:54:45.666Z,45.19
2023-03-05T13:57:50.099Z,44.94
2023-03-05T14:01:04.640Z,45.29
2023-03-05T14:04:17.612Z,45.26
2023-03-05T14:07:31.165Z,46.95
2023-03-05T14:10:36.325Z,47.39
2023-03-05T14:13:37.931Z,47.97
2023-03-05T14:16:39.360Z,47.05
2023-03-05T14:19:40.808Z,47.73
2023-03-05T14:22:44.707Z,48.03
2023-03-05T14:25:46.964Z,47.92
2023-03-05T14:28:53.034Z,48.42
2023-03-05T14:31:56.932Z,47.59
2023-03-05T14:35:00.408Z,48.63
2023-03-05T14:38:02.071Z,49.13
2023-03-05T14:41:20.509Z,49.15
2023-03-05T14:44:24.641Z,49.75
2023-03-05T14:47:27.529Z,49.33
2023-03-05T14:50:31.836Z,51.16
2023-03-05T14:53:38.180Z,51.13
2023-03-05T14:56:40.155Z,52.14
2023-03-05T14:59:41.518Z,51.14
2023-03-05T15:02:43.002Z,51.46
2023-03-05T15:05:47.139Z,51.78
2023-03-05T15:08:48.551Z,52.19
2023-03-05T15:11:50.553Z,52.09
2023-03-05T15:14:52.463Z,52.49
2023-03-05T15:17:55.300Z,52.15
2023-03-05T15:20:56.811Z,52.69
2023-03-05T15:23:58.860Z,52.79
2023-03-05T15:27:02.506Z,54.01
2023-03-05T15:30:04.742Z,54.10
2023-03-05T15:33:08.794Z,54.64
2023-03-05T15:36:10.320Z,54.27
2023-03-05T15:39:11.975Z,54.40
2023-03-05T15:42:13.990Z,54.86
2023-03-05T15:45:15.975Z,54.74
2023-03-05T15:48:17.494Z,54.79
2023-03-05T15:51:20.505Z,55.06
2023-03-05T15:54:22.129Z,55.13
2023-03-05T15:57:24.060Z,54.66
2023-03-05T16:00:30.229Z,54.45
2023-03-05T16:03:31.661Z,55.00
2023-03-05T16:06:34.066Z,55.80
2023-03-05T16:09:38.509Z,55.80
2023-03-05T16:12:42.208Z,55.25
2023-03-05T16:15:44.425Z,55.99
2023-03-05T16:18:47.461Z,56.50
2023-03-05T16:21:48.744Z,56.16
2023-03-05T16:24:50.236Z,57.11
2023-03-05T16:27:52.159Z,56.55
2023-03-05T16:30:54.194Z,56.93
2023-03-05T16:33:55.600Z,56.98
2023-03-05T16:37:00.067Z,57.68
2023-03-05T16:40:01.537Z,57.75
2023-03-05T16:43:03.688Z,57.78
2023-03-05T16:46:05.169Z,57.61
2023-03-05T16:49:06.652Z,58.21
2023-03-05T16:52:19.487Z,58.01
2023-03-05T16:55:21.599Z,57.75
2023-03-05T16:58:23.640Z,58.08
2023-03-05T17:01:25.549Z,59.34
2023-03-05T17:04:27.071Z,59.47
2023-03-05T17:07:28.517Z,58.51
2023-03-05T17:10:30.457Z,59.08
2023-03-05T17:13:32.368Z,59.23
2023-03-05T17:16:33.868Z,59.29
2023-03-05T17:19:35.237Z,58.86
2023-03-05T17:22:36.734Z,60.69
2023-03-05T17:25:38.059Z,59.73
2023-03-05T17:28:40.328Z,60.42
2023-03-05T17:31:41.742Z,60.43
2023-03-05T17:34:43.668Z,59.71
2023-03-05T17:37:45.170Z,59.74
2023-03-05T17:40:46.645Z,60.23
2023-03-05T17:43:49.533Z,59.23
2023-03-05T17:46:50.981Z,60.08
2023-03-05T17:49:52.411Z,60.50
2023-03-05T17:52:54.494Z,59.95
2023-03-05T17:55:56.015Z,60.17
2023-03-05T17:58:58.193Z,59.84
2023-03-05T18:01:59.976Z,59.89
2023-03-05T18:05:03.242Z,60.66
2023-03-05T18:08:05.643Z,60.63
2023-03-05T18:11:06.963Z,61.41
2023-03-05T18:14:09.080Z,61.21
2023-03-05T18:17:10.374Z,60.38
2023-03-05T18:20:24.015Z,61.73
2023-03-05T18:23:25.275Z,61.92
2023-03-05T18:26:26.736Z,62.41
2023-03-05T18:29:28.661Z,61.48
2023-03-05T18:32:30.414Z,60.63
2023-03-05T18:35:32.779Z,62.22
2023-03-05T18:38:34.607Z,62.03
2023-03-05T18:41:36.474Z,61.25
2023-03-05T18:44:38.663Z,62.28
2023-03-05T18:47:41.308Z,61.92
2023-03-05T18:50:43.188Z,62.15
2023-03-05T18:53:44.717Z,61.84
2023-03-05T18:56:46.042Z,61.45
2023-03-05T18:59:48.015Z,61.14
2023-03-05T19:02:49.549Z,62.01
2023-03-05T19:05:51.411Z,62.51
2023-03-05T19:08:56.828Z,62.94
2023-03-05T19:11:58.160Z,62.71
2023-03-05T19:15:01.281Z,62.54
2023-03-05T19:18:02.585Z,62.99
2023-03-05T19:21:04.500Z,63.62
2023-03-05T19:24:06.146Z,63.28
2023-03-05T19:27:10.945Z,63.04
2023-03-05T19:30:15.158Z,63.70
2023-03-05T19:33:16.599Z,63.83
2023-03-05T19:36:17.960Z,64.74
2023-03-05T19:39:19.480Z,64.03
2023-03-05T19:42:20.836Z,64.20
2023-03-05T19:45:22.988Z,64.25
2023-03-05T19:48:24.269Z,65.13
2023-03-05T19:51:26.523Z,65.56
2023-03-05T19:54:27.952Z,65.00
2023-03-05T19:57:29.385Z,64.97
2023-03-05T20:00:31.373Z,65.27
2023-03-05T20:03:32.836Z,66.62
2023-03-05T20:06:34.199Z,66.06
2023-03-05T20:09:35.664Z,66.14
2023-03-05T20:12:38.386Z,67.47
2023-03-05T20:15:40.534Z,67.02
2023-03-05T20:18:41.839Z,66.90
2023-03-05T20:21:44.932Z,67.41
2023-03-05T20:24:46.803Z,67.34
2023-03-05T20:27:48.289Z,67.14
2023-03-05T20:30:54.022Z,67.47
2023-03-05T20:33:55.794Z,67.10
2023-03-05T20:36:57.585Z,67.58
2023-03-05T20:39:58.855Z,67.58
2023-03-05T20:43:00.155Z,67.88
2023-03-05T20:46:03.559Z,67.65
2023-03-05T20:49:05.645Z,67.70
2023-03-05T20:52:06.938Z,67.02
2023-03-05T20:55:09.542Z,67.39
2023-03-05T20:58:11.403Z,67.63
2023-03-05T21:01:13.709Z,67.39
2023-03-05T21:04:15.620Z,68.43
2023-03-05T21:07:17.188Z,67.93
2023-03-05T21:10:19.574Z,69.51
2023-03-05T21:13:21.206Z,69.30
2023-03-05T21:16:26.011Z,70.57
2023-03-05T21:19:27.537Z,71.24
2023-03-05T21:22:28.810Z,71.05
2023-03-05T21:25:31.568Z,71.30
2023-03-05T21:28:32.936Z,70.91
2023-03-05T21:31:36.840Z,71.48
2023-03-05T21:34:38.145Z,71.18
2023-03-05T21:37:41.913Z,72.18
2023-03-05T21:40:47.618Z,72.75
2023-03-05T21:43:49.040Z,72.44
2023-03-05T21:46:51.033Z,72.36
2023-03-05T21:49:52.491Z,73.17
2023-03-05T21:52:54.033Z,72.35
2023-03-05T21:56:04.552Z,73.68
2023-03-05T21:59:05.855Z,73.31
2023-03-05T22:02:11.457Z,73.17
2023-03-05T22:05:14.808Z,72.89
2023-03-05T22:08:16.366Z,73.41
2023-03-05T22:11:18.206Z,73.65
2023-03-05T22:14:19.815Z,74.32
2023-03-05T22:17:21.798Z,74.12
2023-03-05T22:20:23.235Z,73.87
2023-03-05T22:23:28.454Z,74.00
2023-03-05T22:26:34.549Z,73.34
2023-03-05T22:29:35.786Z,73.16
2023-03-05T22:32:37.984Z,73.09
2023-03-05T22:35:40.130Z,73.41
2023-03-05T22:38:42.416Z,74.55
2023-03-05T22:41:43.739Z,74.49
2023-03-05T22:44:45.185Z,73.73
2023-03-05T22:47:48.908Z,74.37
2023-03-05T22:50:55.225Z,74.71
2023-03-05T22:53:56.515Z,74.22
2023-03-05T22:56:58.041Z,74.60
2023-03-05T22:59:59.424Z,74.41
2023-03-05T23:03:01.644Z,74.62
2023-03-05T23:06:04.305Z,74.14
2023-03-05T23:09:05.867Z,74.65
2023-03-05T23:12:07.653Z,74.44
2023-03-05T23:15:12.093Z,74.75
2023-03-05T23:18:14.486Z,74.66
2023-03-05T23:21:15.857Z,74.57
2023-03-05T23:24:17.582Z,74.79
2023-03-05T23:27:19.390Z,74.77
2023-03-05T23:30:22.088Z,75.00
2023-03-05T23:33:24.216Z,74.75
2023-03-05T23:36:26.077Z,75.07
2023-03-05T23:39:27.362Z,74.96
2023-03-05T23:42:28.833Z,75.13
2023-03-05T23:45:30.736Z,74.90
2023-03-05T23:48:32.814Z,74.76
2023-03-05T23:51:34.396Z,75.34
2023-03-05T23:54:35.845Z,74.96
2023-03-05T23:57:37.270Z,75.02
